createdAt,value
2022-08-01T00:04:08.023Z,81.70
2022-08-01T00:10:50.618Z,82.70
2022-08-01T00:17:33.287Z,84.90
2022-08-01T00:24:16.487Z,83.00
2022-08-01T00:31:00.546Z,83.20
2022-08-01T00:37:45.661Z,84.30
2022-08-01T00:44:28.440Z,84.50
2022-08-01T00:51:11.577Z,84.30
2022-08-01T00:58:03.302Z,84.30
2022-08-01T01:04:48.471Z,85.20
2022-08-01T01:11:40.366Z,85.80
2022-08-01T01:18:31.556Z,86.80
2022-08-01T01:25:24.172Z,87.20
2022-08-01T01:32:22.624Z,88.30
2022-08-01T01:39:15.206Z,88.60
2022-08-01T01:45:58.458Z,89.50
2022-08-01T01:52:43.277Z,90.10
2022-08-01T01:59:29.752Z,90.50
2022-08-01T02:06:15.625Z,90.60
2022-08-01T02:13:05.084Z,91.20
2022-08-01T02:19:48.740Z,91.50
2022-08-01T02:26:32.573Z,92.00
2022-08-01T02:33:19.428Z,92.80
2022-08-01T02:40:08.427Z,93.30
2022-08-01T02:47:05.490Z,93.90
2022-08-01T02:53:49.288Z,94.30
2022-08-01T03:07:54.868Z,94.80
2022-08-01T03:14:40.785Z,94.90
2022-08-01T03:21:25.005Z,94.90
2022-08-01T03:28:09.525Z,95.10
2022-08-01T03:34:52.663Z,95.50
2022-08-01T03:41:40.992Z,95.60
2022-08-01T03:48:29.039Z,95.70
2022-08-01T03:55:13.786Z,95.60
2022-08-01T04:01:57.210Z,95.70
2022-08-01T04:08:41.207Z,95.60
2022-08-01T04:15:24.815Z,96.00
2022-08-01T04:22:09.401Z,95.90
2022-08-01T04:28:53.630Z,96.10
2022-08-01T04:36:01.989Z,95.90
2022-08-01T04:42:41.991Z,95.90
2022-08-01T04:49:25.910Z,95.60
2022-08-01T04:56:08.665Z,95.50
2022-08-01T05:02:51.197Z,95.40
2022-08-01T05:09:54.092Z,95.60
2022-08-01T05:16:37.435Z,95.40
2022-08-01T05:23:37.742Z,95.10
2022-08-01T05:30:22.900Z,93.80
2022-08-01T05:37:23.848Z,91.00
2022-08-01T05:44:07.152Z,86.70
2022-08-01T05:58:12.447Z,79.30
2022-08-01T06:04:55.221Z,76.00
2022-08-01T06:11:37.805Z,75.00
2022-08-01T06:18:20.763Z,74.90
2022-08-01T06:25:06.075Z,74.00
2022-08-01T06:31:48.754Z,73.50
2022-08-01T06:38:31.268Z,72.20
2022-08-01T06:45:14.469Z,71.40
2022-08-01T06:51:56.976Z,70.90
2022-08-01T06:58:39.533Z,69.70
2022-08-01T07:05:22.792Z,68.40
2022-08-01T07:12:05.786Z,70.00
2022-08-01T07:18:48.487Z,68.80
2022-08-01T07:25:31.069Z,68.60
2022-08-01T07:32:13.621Z,67.20
2022-08-01T07:38:56.493Z,67.60
2022-08-01T07:45:39.011Z,67.70
2022-08-01T07:52:29.078Z,67.70
2022-08-01T07:59:11.645Z,67.60
2022-08-01T08:05:59.814Z,67.70
2022-08-01T08:12:42.986Z,68.20
2022-08-01T08:19:37.867Z,68.30
2022-08-01T08:26:21.701Z,68.60
2022-08-01T08:33:04.558Z,68.40
2022-08-01T08:39:56.105Z,68.60
2022-08-01T08:46:47.106Z,69.20
2022-08-01T08:53:34.728Z,68.30
2022-08-01T09:00:17.646Z,69.30
2022-08-01T09:07:00.192Z,68.60
2022-08-01T09:13:45.250Z,70.40
2022-08-01T09:20:28.448Z,70.80
2022-08-01T09:27:24.209Z,72.40
2022-08-01T09:34:09.431Z,71.70
2022-08-01T09:48:08.126Z,72.30
2022-08-01T09:54:58.995Z,69.80
2022-08-01T10:01:49.589Z,70.20
2022-08-01T10:08:47.761Z,72.20
2022-08-01T10:15:37.872Z,70.80
2022-08-01T10:22:23.619Z,69.50
2022-08-01T10:29:06.864Z,67.10
2022-08-01T10:36:10.431Z,67.10
2022-08-01T10:42:53.213Z,67.80
2022-08-01T10:49:52.355Z,69.50
2022-08-01T10:56:47.021Z,68.60
2022-08-01T11:04:05.411Z,69.00
2022-08-01T11:10:48.347Z,70.60
2022-08-01T11:17:41.868Z,71.30
2022-08-01T11:24:49.832Z,71.40
2022-08-01T11:31:37.616Z,70.90
2022-08-01T11:38:27.784Z,72.00
2022-08-01T11:45:13.321Z,72.20
2022-08-01T11:51:59.639Z,72.50
2022-08-01T11:58:42.286Z,72.30
2022-08-01T12:05:25.271Z,73.00
2022-08-01T12:12:09.560Z,73.00
2022-08-01T12:18:52.000Z,72.60
2022-08-01T12:25:35.483Z,72.40
2022-08-01T12:32:39.237Z,72.60
2022-08-01T12:39:21.655Z,72.40
2022-08-01T12:46:04.433Z,72.90
2022-08-01T12:52:49.028Z,73.30
2022-08-01T12:59:32.811Z,72.90
2022-08-01T13:06:17.584Z,72.40
2022-08-01T13:13:00.380Z,72.60
2022-08-01T13:19:48.805Z,72.90
2022-08-01T13:27:04.159Z,73.00
2022-08-01T13:33:52.320Z,73.00
2022-08-01T13:40:42.385Z,72.50
2022-08-01T13:47:31.012Z,72.30
2022-08-01T13:54:16.018Z,72.80
2022-08-01T14:09:26.067Z,73.20
2022-08-01T14:16:15.510Z,73.20
2022-08-01T14:22:57.929Z,72.60
2022-08-01T14:30:00.376Z,72.50
2022-08-01T14:36:43.658Z,72.20
2022-08-01T14:43:32.269Z,72.20
2022-08-01T14:50:16.621Z,72.40
2022-08-01T14:56:59.328Z,72.20
2022-08-01T15:03:41.994Z,72.20
2022-08-01T15:10:24.423Z,72.40
2022-08-01T15:17:08.647Z,72.40
2022-08-01T15:23:51.132Z,73.60
2022-08-01T15:30:34.078Z,73.00
2022-08-01T15:37:16.574Z,72.90
2022-08-01T15:43:59.079Z,73.10
2022-08-01T15:50:41.499Z,72.50
2022-08-01T15:57:23.880Z,72.40
2022-08-01T16:04:07.442Z,72.40
2022-08-01T16:10:49.862Z,72.70
2022-08-01T16:17:32.433Z,72.60
2022-08-01T16:24:15.054Z,72.90
2022-08-01T16:31:15.788Z,73.20
2022-08-01T16:38:00.042Z,73.20
2022-08-01T16:44:45.236Z,73.00
2022-08-01T16:51:27.747Z,73.70
2022-08-01T16:58:33.644Z,73.90
2022-08-01T17:05:16.084Z,74.30
2022-08-01T17:12:22.327Z,74.20
2022-08-01T17:19:06.027Z,74.40
2022-08-01T17:25:48.483Z,74.90
2022-08-01T17:32:30.933Z,75.20
2022-08-01T17:39:13.532Z,75.10
2022-08-01T17:45:57.670Z,75.20
2022-08-01T17:52:40.178Z,75.20
2022-08-01T17:59:22.595Z,75.60
2022-08-01T18:06:05.268Z,76.20
2022-08-01T18:12:47.652Z,76.70
2022-08-01T18:19:30.139Z,77.10
2022-08-01T18:26:12.573Z,77.90
2022-08-01T18:32:55.957Z,78.00
2022-08-01T18:39:38.756Z,78.80
2022-08-01T18:46:21.753Z,79.70
2022-08-01T18:53:04.159Z,80.30
2022-08-01T18:59:46.565Z,80.50
2022-08-01T19:06:28.953Z,81.40
2022-08-01T19:13:11.800Z,82.20
2022-08-01T19:19:55.990Z,82.10
2022-08-01T19:26:44.007Z,82.30
2022-08-01T19:33:29.679Z,83.10
2022-08-01T19:40:26.677Z,82.80
2022-08-01T19:47:11.151Z,83.30
2022-08-01T19:53:55.628Z,83.40
2022-08-01T20:07:58.992Z,83.40
2022-08-01T20:14:43.110Z,83.10
2022-08-01T22:40:23.275Z,99.90
2022-08-01T22:47:11.488Z,99.90
2022-08-01T22:54:14.187Z,99.90
2022-08-01T23:08:27.533Z,99.90
2022-08-01T23:15:11.980Z,99.90
2022-08-01T23:21:54.703Z,99.90
2022-08-01T23:28:42.374Z,99.90
2022-08-01T23:35:25.868Z,99.90
2022-08-01T23:42:09.496Z,99.90
2022-08-01T23:48:52.048Z,99.90
2022-08-01T23:55:37.566Z,99.90
